Time;durP1;ratioP1;P1;durP2;ratioP2;P2;SDS_P1;SDS_P2;PMS_P1;PMS_P2;Temp;Humidity;BMP_temperature;BMP_pressure;BME280_temperature;BME280_humidity;BME280_pressure;Samples;Min_cycle;Max_cycle;Signal;HPM_P1;HPM_P2
2023/03/07 00:00:19;;;;;;;0.10;0.10;;;;;;;16.91;48.21;99639.00;2106203;28;20497;-56
2023/03/07 00:01:23;;;;;;;0.10;0.10;;;;;;;16.89;48.05;99630.47;2104674;28;20101;-56
2023/03/07 00:02:25;;;;;;;0.00;0.00;;;;;;;16.89;48.13;99635.91;2115931;27;20051;-56
2023/03/07 00:03:28;;;;;;;0.00;0.00;;;;;;;16.88;48.27;99631.66;2120318;27;20059;-56
2023/03/07 00:04:30;;;;;;;0.08;0.08;;;;;;;16.89;48.36;99636.69;2115631;27;20134;-56
2023/03/07 00:05:33;;;;;;;0.08;0.08;;;;;;;16.88;48.24;99632.44;2107666;28;20134;-57
2023/03/07 00:06:37;;;;;;;0.00;0.00;;;;;;;16.89;48.08;99639.41;2107114;27;20440;-56
2023/03/07 00:07:39;;;;;;;0.00;0.00;;;;;;;16.88;48.19;99631.66;2114640;27;20586;-56
2023/03/07 00:08:42;;;;;;;0.10;0.10;;;;;;;16.88;48.46;99637.09;2114911;27;20062;-57
2023/03/07 00:09:44;;;;;;;0.03;0.03;;;;;;;16.87;48.13;99630.13;2114024;28;20056;-57
2023/03/07 00:10:47;;;;;;;0.00;0.00;;;;;;;16.88;48.17;99634.38;2116347;27;20069;-56
2023/03/07 00:11:49;;;;;;;0.05;0.05;;;;;;;16.88;48.15;99634.38;2113827;28;20056;-56
2023/03/07 00:12:52;;;;;;;0.10;0.10;;;;;;;16.88;48.00;99635.16;2115426;27;20077;-56
2023/03/07 00:13:54;;;;;;;0.10;0.10;;;;;;;16.88;48.05;99629.72;2115582;27;20055;-56
2023/03/07 00:14:57;;;;;;;0.05;0.05;;;;;;;16.87;48.08;99632.84;2115875;27;20082;-55
2023/03/07 00:16:01;;;;;;;0.00;0.00;;;;;;;16.87;47.98;99635.56;2116519;27;20171;-56
2023/03/07 00:17:04;;;;;;;0.00;0.00;;;;;;;16.85;47.91;99635.97;2116975;27;20074;-56
2023/03/07 00:18:06;;;;;;;0.10;0.10;;;;;;;16.86;48.10;99634.00;2115044;27;20488;-56
2023/03/07 00:19:09;;;;;;;0.00;0.00;;;;;;;16.85;48.20;99635.97;2118071;27;20055;-56
2023/03/07 00:20:13;;;;;;;0.10;0.10;;;;;;;16.85;48.09;99637.94;2117710;27;20039;-56
2023/03/07 00:21:18;;;;;;;0.10;0.10;;;;;;;16.86;47.99;99637.53;2118124;27;20122;-57
2023/03/07 00:22:22;;;;;;;0.00;0.00;;;;;;;16.86;47.89;99634.00;2115729;27;20146;-56
2023/03/07 00:23:25;;;;;;;0.03;0.03;;;;;;;16.81;48.03;99629.03;2115265;27;20051;-56
2023/03/07 00:24:27;;;;;;;0.00;0.00;;;;;;;16.84;48.10;99636.41;2120139;27;20047;-56
2023/03/07 00:25:30;;;;;;;0.00;0.00;;;;;;;16.83;47.97;99626.66;2113903;27;20100;-56
2023/03/07 00:26:32;;;;;;;0.05;0.05;;;;;;;16.84;47.99;99628.22;2115973;27;20055;-56
2023/03/07 00:27:36;;;;;;;0.00;0.00;;;;;;;16.84;47.53;99628.22;2114254;27;20062;-56
2023/03/07 00:28:38;;;;;;;0.03;0.03;;;;;;;16.83;48.17;99632.13;2118444;27;20053;-56
2023/03/07 00:29:41;;;;;;;0.10;0.10;;;;;;;16.83;48.11;99627.44;2118564;27;20047;-56
2023/03/07 00:30:43;;;;;;;0.10;0.10;;;;;;;16.83;48.05;99623.94;2113485;27;20055;-56
2023/03/07 00:31:46;;;;;;;0.05;0.05;;;;;;;16.83;48.08;99624.72;2115565;27;20084;-56
2023/03/07 00:32:48;;;;;;;0.10;0.10;;;;;;;16.82;47.90;99625.91;2114396;27;20055;-56
2023/03/07 00:33:51;;;;;;;0.10;0.10;;;;;;;16.81;47.99;99618.88;2115927;27;20112;-56
2023/03/07 00:34:53;;;;;;;0.10;0.10;;;;;;;16.82;47.98;99623.19;2114295;27;20047;-56
2023/03/07 00:35:57;;;;;;;0.08;0.08;;;;;;;16.82;47.89;99615.00;2105237;28;20080;-56
2023/03/07 00:36:59;;;;;;;0.10;0.10;;;;;;;16.81;47.84;99618.13;2109735;27;20081;-56
2023/03/07 00:38:04;;;;;;;0.00;0.00;;;;;;;16.82;47.89;99627.84;2117126;27;20051;-56
2023/03/07 00:39:07;;;;;;;0.10;0.10;;;;;;;16.81;47.82;99632.53;2109288;28;20075;-56
2023/03/07 00:40:11;;;;;;;0.00;0.00;;;;;;;16.81;47.89;99629.03;2112782;27;20052;-55
2023/03/07 00:41:14;;;;;;;0.10;0.10;;;;;;;16.80;47.81;99628.25;2115084;27;20044;-56
2023/03/07 00:42:17;;;;;;;0.10;0.10;;;;;;;16.80;48.09;99617.34;2104908;28;20059;-56
2023/03/07 00:43:19;;;;;;;0.10;0.10;;;;;;;16.80;47.76;99624.75;2108060;28;20044;-56
2023/03/07 00:44:24;;;;;;;0.10;0.10;;;;;;;16.80;47.99;99622.03;2115015;27;20051;-56
2023/03/07 00:45:26;;;;;;;0.10;0.10;;;;;;;16.80;47.95;99624.75;2121317;27;20066;-56
2023/03/07 00:46:29;;;;;;;0.08;0.08;;;;;;;16.80;47.74;99619.31;2115045;27;20047;-56
2023/03/07 00:47:31;;;;;;;0.08;0.08;;;;;;;16.79;47.72;99625.94;2106364;28;20556;-56
2023/03/07 00:48:36;;;;;;;0.05;0.05;;;;;;;16.79;47.75;99617.78;2104683;28;20393;-56
2023/03/07 00:49:38;;;;;;;0.10;0.10;;;;;;;16.78;47.70;99619.72;2107432;28;20063;-56
2023/03/07 00:50:41;;;;;;;0.10;0.10;;;;;;;16.78;47.96;99613.47;2098366;28;20565;-56
2023/03/07 00:51:43;;;;;;;0.10;0.10;;;;;;;16.75;47.71;99614.31;2104520;28;20044;-56
2023/03/07 00:52:46;;;;;;;0.10;0.10;;;;;;;16.77;47.93;99615.47;2114062;28;20081;-56
2023/03/07 00:53:50;;;;;;;0.05;0.05;;;;;;;16.77;47.96;99612.72;2104692;28;20432;-56
2023/03/07 00:54:54;;;;;;;0.10;0.10;;;;;;;16.76;47.68;99610.41;2095677;28;20096;-56
2023/03/07 00:55:58;;;;;;;0.10;0.10;;;;;;;16.76;47.83;99603.00;2094592;28;20043;-56
2023/03/07 00:57:01;;;;;;;0.10;0.10;;;;;;;16.75;47.78;99606.13;2106292;27;20056;-56
2023/03/07 00:58:04;;;;;;;0.10;0.10;;;;;;;16.75;47.88;99606.13;2108667;28;20173;-56
2023/03/07 00:59:07;;;;;;;0.03;0.03;;;;;;;16.75;47.91;99601.47;2113648;27;20047;-56
2023/03/07 01:00:10;;;;;;;0.00;0.00;;;;;;;16.76;47.74;99604.97;2114070;27;20051;-56
2023/03/07 01:01:15;;;;;;;0.00;0.00;;;;;;;16.75;47.68;99603.41;2105819;27;20079;-56
2023/03/07 01:02:18;;;;;;;0.00;0.00;;;;;;;16.74;47.77;99596.44;2113678;27;20054;-56
2023/03/07 01:03:22;;;;;;;0.03;0.03;;;;;;;16.74;48.05;99596.44;2113458;27;20051;-57
2023/03/07 01:04:23;;;;;;;0.03;0.03;;;;;;;16.73;47.76;99603.81;2114993;27;20047;-56
2023/03/07 01:05:26;;;;;;;0.00;0.00;;;;;;;16.73;47.65;99603.06;2115250;27;20052;-57
2023/03/07 01:06:31;;;;;;;0.10;0.10;;;;;;;16.74;47.68;99604.59;2114110;27;20043;-56
2023/03/07 01:07:35;;;;;;;0.00;0.00;;;;;;;16.73;47.50;99597.63;2117506;27;20055;-56
2023/03/07 01:08:37;;;;;;;0.00;0.00;;;;;;;16.72;47.53;99610.47;2117718;27;20043;-56
2023/03/07 01:09:41;;;;;;;0.00;0.00;;;;;;;16.74;47.48;99601.88;2113653;27;20051;-56
2023/03/07 01:10:44;;;;;;;0.05;0.05;;;;;;;16.72;47.62;99601.50;2114727;27;20055;-56
2023/03/07 01:11:49;;;;;;;0.10;0.10;;;;;;;16.72;47.51;99605.00;2113645;27;20058;-56
2023/03/07 01:12:51;;;;;;;0.00;0.00;;;;;;;16.71;47.53;99602.69;2109776;28;20474;-56
2023/03/07 01:13:56;;;;;;;0.10;0.10;;;;;;;16.72;47.55;99605.00;2111802;28;20043;-56
2023/03/07 01:14:58;;;;;;;0.00;0.00;;;;;;;16.70;47.49;99598.44;2107456;27;20047;-56
2023/03/07 01:16:08;;;;;;;0.03;0.03;;;;;;;16.69;47.55;99599.59;2115400;27;20071;-56
2023/03/07 01:17:10;;;;;;;0.00;0.00;;;;;;;16.67;47.77;99599.25;2117898;27;20392;-56
2023/03/07 01:18:13;;;;;;;0.15;0.15;;;;;;;16.68;47.68;99600.78;2117214;27;20051;-56
2023/03/07 01:19:15;;;;;;;0.10;0.10;;;;;;;16.68;47.51;99604.28;2115892;27;20062;-58
2023/03/07 01:20:18;;;;;;;0.03;0.03;;;;;;;16.68;47.61;99593.38;2114790;27;20051;-56
2023/03/07 01:21:23;;;;;;;0.13;0.13;;;;;;;16.68;47.77;99598.81;2117296;27;20099;-56
2023/03/07 01:22:26;;;;;;;0.00;0.00;;;;;;;16.68;47.64;99603.53;2114335;27;20093;-56
2023/03/07 01:23:28;;;;;;;0.10;0.10;;;;;;;16.68;47.55;99593.38;2115614;27;20251;-57
2023/03/07 01:24:31;;;;;;;0.10;0.10;;;;;;;16.69;47.54;99588.69;2113386;27;20047;-56
2023/03/07 01:25:38;;;;;;;0.08;0.08;;;;;;;16.67;47.36;99585.63;2113967;27;20124;-57
2023/03/07 01:26:42;;;;;;;0.10;0.10;;;;;;;16.66;47.67;99586.81;2115628;27;20134;-56
2023/03/07 01:27:44;;;;;;;0.10;0.10;;;;;;;16.66;47.47;99581.34;2116718;27;20879;-56
2023/03/07 01:28:47;;;;;;;0.10;0.10;;;;;;;16.67;47.46;99585.63;2113341;27;20051;-56
2023/03/07 01:29:49;;;;;;;0.10;0.10;;;;;;;16.66;47.63;99579.41;2113415;27;20051;-56
2023/03/07 01:30:57;;;;;;;0.05;0.05;;;;;;;16.66;47.25;99575.91;2115933;27;20144;-56
2023/03/07 01:31:59;;;;;;;0.10;0.10;;;;;;;16.65;47.57;99577.09;2113402;27;20044;-56
2023/03/07 01:33:03;;;;;;;0.10;0.10;;;;;;;16.65;47.45;99577.09;2115963;27;20056;-56
2023/03/07 01:34:05;;;;;;;0.05;0.05;;;;;;;16.64;47.40;99580.97;2115335;27;20059;-57
2023/03/07 01:35:10;;;;;;;0.08;0.08;;;;;;;16.64;47.49;99575.53;2114119;27;20044;-56
2023/03/07 01:36:17;;;;;;;0.10;0.10;;;;;;;16.63;47.39;99569.34;2112382;27;20048;-56
2023/03/07 01:37:21;;;;;;;0.00;0.00;;;;;;;16.62;47.50;99569.75;2115332;27;20043;-56
2023/03/07 01:38:24;;;;;;;0.10;0.10;;;;;;;16.63;47.40;99568.56;2117827;27;20408;-57
2023/03/07 01:39:27;;;;;;;0.10;0.10;;;;;;;16.63;47.42;99574.00;2114529;27;20047;-57
2023/03/07 01:40:33;;;;;;;0.10;0.10;;;;;;;16.61;47.40;99560.00;2108570;28;20052;-57
2023/03/07 01:41:38;;;;;;;0.03;0.03;;;;;;;16.63;47.44;99569.34;2109696;28;20047;-56
2023/03/07 01:42:42;;;;;;;0.10;0.10;;;;;;;16.61;47.34;99570.91;2115322;27;20052;-56
2023/03/07 01:43:45;;;;;;;0.00;0.00;;;;;;;16.62;47.38;99567.78;2108977;28;20051;-56
2023/03/07 01:45:00;;;;;;;0.10;0.10;;;;;;;16.58;47.35;99563.56;2108567;27;20051;-56
2023/03/07 01:46:29;;;;;;;0.08;0.08;;;;;;;16.54;47.59;99563.59;2115702;27;20043;-56
2023/03/07 01:47:32;;;;;;;0.00;0.00;;;;;;;16.56;47.34;99563.19;2115474;27;20043;-56
2023/03/07 01:48:34;;;;;;;0.00;0.00;;;;;;;16.57;47.36;99568.22;2111212;28;20051;-56
2023/03/07 01:49:39;;;;;;;0.00;0.00;;;;;;;16.59;47.31;99567.81;2110045;28;20752;-57
2023/03/07 01:50:42;;;;;;;0.10;0.10;;;;;;;16.57;47.51;99565.50;2111781;27;20528;-56
2023/03/07 01:51:51;;;;;;;0.00;0.00;;;;;;;16.58;47.43;99561.63;2113574;27;20239;-56
2023/03/07 01:52:57;;;;;;;0.03;0.03;;;;;;;16.58;47.45;99563.56;2116025;27;20055;-56
2023/03/07 01:54:01;;;;;;;0.00;0.00;;;;;;;16.57;47.25;99560.06;2112229;27;20097;-56
2023/03/07 01:55:09;;;;;;;0.03;0.03;;;;;;;16.57;47.36;99559.31;2116003;27;20481;-56
2023/03/07 01:56:13;;;;;;;0.05;0.05;;;;;;;16.56;47.39;99555.78;2112979;27;20138;-58
2023/03/07 01:57:18;;;;;;;0.00;0.00;;;;;;;16.57;47.37;99560.06;2112321;28;20412;-56
2023/03/07 01:58:21;;;;;;;0.15;0.15;;;;;;;16.56;47.39;99563.97;2112356;28;20446;-56
2023/03/07 01:59:28;;;;;;;0.08;0.08;;;;;;;16.57;47.52;99559.31;2109094;28;20060;-56
2023/03/07 02:00:31;;;;;;;0.10;0.10;;;;;;;16.56;47.21;99568.66;2111871;27;20079;-57
2023/03/07 02:01:34;;;;;;;0.28;0.28;;;;;;;16.51;47.30;99560.94;2112572;28;20498;-56
2023/03/07 02:02:39;;;;;;;0.00;0.00;;;;;;;16.57;47.45;99570.19;2115458;27;20082;-56
2023/03/07 02:03:45;;;;;;;0.10;0.10;;;;;;;16.56;47.33;99563.19;2113048;28;20554;-56
2023/03/07 02:04:52;;;;;;;0.00;0.00;;;;;;;16.55;47.42;99567.09;2113858;27;20067;-56
2023/03/07 02:05:58;;;;;;;0.00;0.00;;;;;;;16.52;47.58;99567.94;2104766;28;20459;-56
2023/03/07 02:07:02;;;;;;;0.10;0.10;;;;;;;16.53;47.25;99556.63;2109287;27;20090;-56
2023/03/07 02:08:07;;;;;;;0.00;0.00;;;;;;;16.55;47.28;99558.94;2108390;28;20055;-56
2023/03/07 02:09:15;;;;;;;0.10;0.10;;;;;;;16.55;47.26;99553.47;2090328;28;20513;-56
2023/03/07 02:10:20;;;;;;;0.10;0.10;;;;;;;16.54;47.30;99554.69;2107964;27;20122;-56
2023/03/07 02:11:24;;;;;;;0.10;0.10;;;;;;;16.53;47.39;99553.13;2117103;27;20051;-56
2023/03/07 02:12:28;;;;;;;0.10;0.10;;;;;;;16.55;47.30;99558.94;2109891;28;20126;-56
2023/03/07 02:13:31;;;;;;;0.03;0.03;;;;;;;16.53;47.31;99547.66;2118772;27;20416;-56
2023/03/07 02:14:35;;;;;;;0.10;0.10;;;;;;;16.52;47.39;99546.13;2110113;28;20614;-56
2023/03/07 02:15:38;;;;;;;0.10;0.10;;;;;;;16.53;47.21;99547.66;2106835;28;20052;-56
2023/03/07 02:16:40;;;;;;;0.10;0.10;;;;;;;16.53;47.40;99550.38;2115909;27;20067;-57
2023/03/07 02:17:45;;;;;;;0.00;0.00;;;;;;;16.53;47.07;99547.66;2119727;27;20061;-56
2023/03/07 02:18:49;;;;;;;0.08;0.08;;;;;;;16.53;47.28;99542.22;2117144;27;20043;-57
2023/03/07 02:20:04;;;;;;;0.10;0.10;;;;;;;16.50;47.23;99540.31;2108710;28;20784;-56
2023/03/07 02:21:12;;;;;;;0.05;0.05;;;;;;;16.50;47.29;99540.31;2117985;27;20083;-56
2023/03/07 02:22:17;;;;;;;0.10;0.10;;;;;;;16.50;47.33;99543.81;2112500;28;20102;-57
2023/03/07 02:23:25;;;;;;;0.10;0.10;;;;;;;16.50;47.44;99545.78;2113026;27;20142;-56
2023/03/07 02:24:35;;;;;;;0.00;0.00;;;;;;;16.47;47.14;99533.75;2114220;27;20059;-56
2023/03/07 02:25:42;;;;;;;0.10;0.10;;;;;;;16.48;47.31;99534.50;2115103;27;20453;-56
2023/03/07 02:26:49;;;;;;;0.10;0.10;;;;;;;16.48;47.22;99523.59;2115338;27;20223;-56
2023/03/07 02:27:54;;;;;;;0.08;0.08;;;;;;;16.48;47.05;99529.84;2113996;27;20083;-56
2023/03/07 02:28:59;;;;;;;0.10;0.10;;;;;;;16.48;47.10;99531.78;2114712;27;20054;-56
2023/03/07 02:30:01;;;;;;;0.08;0.08;;;;;;;16.47;47.26;99539.19;2111480;28;20056;-57
2023/03/07 02:31:07;;;;;;;0.00;0.00;;;;;;;16.49;47.05;99546.97;2109500;28;20139;-57
2023/03/07 02:32:11;;;;;;;0.00;0.00;;;;;;;16.46;47.17;99526.00;2112978;27;20102;-56
2023/03/07 02:33:14;;;;;;;0.00;0.00;;;;;;;16.47;47.22;99533.75;2112674;28;20044;-56
2023/03/07 02:34:18;;;;;;;0.00;0.00;;;;;;;16.47;46.93;99528.31;2114857;27;20130;-56
2023/03/07 02:35:24;;;;;;;0.10;0.10;;;;;;;16.47;47.05;99527.53;2118343;27;20047;-57
2023/03/07 02:36:34;;;;;;;0.05;0.05;;;;;;;16.44;47.10;99532.59;2113655;27;20052;-56
2023/03/07 02:37:53;;;;;;;0.08;0.08;;;;;;;16.43;47.09;99520.16;2113239;27;20055;-56
2023/03/07 02:38:56;;;;;;;0.10;0.10;;;;;;;16.43;47.21;99531.03;2108442;28;20474;-57
2023/03/07 02:40:05;;;;;;;0.17;0.17;;;;;;;16.44;47.21;99529.88;2108214;28;20047;-56
2023/03/07 02:41:10;;;;;;;0.05;0.05;;;;;;;16.43;46.95;99522.88;2111927;28;21949;-56
2023/03/07 02:42:18;;;;;;;0.10;0.10;;;;;;;16.43;46.94;99522.88;2111299;28;20121;-56
2023/03/07 02:43:25;;;;;;;0.08;0.08;;;;;;;16.40;46.99;99520.97;2111148;28;20048;-56
2023/03/07 02:44:28;;;;;;;0.00;0.00;;;;;;;16.42;47.02;99517.84;2119445;28;20072;-56
2023/03/07 02:45:30;;;;;;;0.08;0.08;;;;;;;16.42;47.03;99515.88;2112877;28;20062;-56
2023/03/07 02:46:33;;;;;;;0.05;0.05;;;;;;;16.41;47.07;99519.78;2117951;28;20063;-56
2023/03/07 02:47:35;;;;;;;0.03;0.03;;;;;;;16.43;46.96;99520.16;2113204;28;20055;-56
2023/03/07 02:48:38;;;;;;;0.10;0.10;;;;;;;16.42;46.73;99526.78;2107389;28;20055;-56
2023/03/07 02:49:40;;;;;;;0.08;0.08;;;;;;;16.43;46.99;99522.09;2096517;28;20179;-56
2023/03/07 02:50:43;;;;;;;0.00;0.00;;;;;;;16.42;46.98;99526.78;2098690;28;20168;-56
2023/03/07 02:51:45;;;;;;;0.10;0.10;;;;;;;16.43;47.01;99527.53;2108211;28;20564;-56
2023/03/07 02:52:48;;;;;;;0.00;0.00;;;;;;;16.43;47.07;99527.53;2109788;28;20048;-56
2023/03/07 02:53:50;;;;;;;0.10;0.10;;;;;;;16.42;46.90;99526.00;2111588;28;20475;-56
2023/03/07 02:54:53;;;;;;;0.00;0.00;;;;;;;16.42;47.04;99526.00;2105907;28;20131;-56
2023/03/07 02:55:56;;;;;;;0.00;0.00;;;;;;;16.41;46.94;99525.22;2100317;28;20666;-56
2023/03/07 02:56:59;;;;;;;0.00;0.00;;;;;;;16.36;47.02;99517.50;2098520;28;20049;-57
2023/03/07 02:58:03;;;;;;;0.03;0.03;;;;;;;16.43;46.86;99532.97;2106071;28;20055;-56
2023/03/07 02:59:06;;;;;;;0.10;0.10;;;;;;;16.41;46.93;99521.75;2103958;28;20332;-57
2023/03/07 03:00:10;;;;;;;0.03;0.03;;;;;;;16.41;47.16;99532.66;2098809;28;20048;-56
2023/03/07 03:01:13;;;;;;;0.03;0.03;;;;;;;16.39;46.74;99526.81;2105116;28;20048;-57
2023/03/07 03:02:15;;;;;;;0.00;0.00;;;;;;;16.40;46.80;99528.34;2114801;28;20063;-56
2023/03/07 03:03:19;;;;;;;0.05;0.05;;;;;;;16.40;46.86;99522.91;2114891;28;20051;-56
2023/03/07 03:04:21;;;;;;;0.10;0.10;;;;;;;16.39;46.69;99527.59;2111807;28;20056;-56
2023/03/07 03:05:24;;;;;;;0.10;0.10;;;;;;;16.38;46.86;99523.31;2109760;28;20600;-56
2023/03/07 03:06:26;;;;;;;0.10;0.10;;;;;;;16.39;46.78;99535.00;2114774;28;20093;-56
2023/03/07 03:07:29;;;;;;;0.10;0.10;;;;;;;16.40;46.91;99533.81;2111650;28;20048;-56
2023/03/07 03:08:31;;;;;;;0.08;0.08;;;;;;;16.38;47.14;99525.25;2112836;28;20051;-56
2023/03/07 03:09:34;;;;;;;0.10;0.10;;;;;;;16.39;46.84;99521.38;2112926;28;20055;-56
2023/03/07 03:10:38;;;;;;;0.00;0.00;;;;;;;16.39;46.72;99521.38;2112878;28;20052;-56
2023/03/07 03:11:41;;;;;;;0.03;0.03;;;;;;;16.39;46.72;99526.81;2110283;28;20071;-56
2023/03/07 03:12:43;;;;;;;0.10;0.10;;;;;;;16.38;46.76;99526.06;2103647;28;20204;-56
2023/03/07 03:13:48;;;;;;;0.03;0.03;;;;;;;16.38;46.76;99531.50;2108453;28;20048;-57
2023/03/07 03:14:50;;;;;;;0.10;0.10;;;;;;;16.36;46.85;99528.41;2104444;28;20413;-56
2023/03/07 03:15:56;;;;;;;0.05;0.05;;;;;;;16.38;46.62;99526.06;2107635;28;20052;-57
2023/03/07 03:16:58;;;;;;;0.10;0.10;;;;;;;16.36;46.64;99528.41;2090397;28;20449;-57
2023/03/07 03:18:01;;;;;;;0.10;0.10;;;;;;;16.35;46.35;99524.16;2100306;28;20682;-56
2023/03/07 03:19:04;;;;;;;0.10;0.10;;;;;;;16.36;46.83;99522.97;2112136;28;20564;-57
2023/03/07 03:20:10;;;;;;;0.10;0.10;;;;;;;16.36;46.59;99525.69;2112544;28;20096;-56
2023/03/07 03:21:13;;;;;;;0.10;0.10;;;;;;;16.30;46.73;99519.16;2115749;27;20059;-56
2023/03/07 03:22:16;;;;;;;0.10;0.10;;;;;;;16.35;46.93;99523.38;2114388;27;20574;-57
2023/03/07 03:23:21;;;;;;;0.10;0.10;;;;;;;16.34;46.60;99517.16;2110512;27;20156;-57
2023/03/07 03:24:24;;;;;;;0.10;0.10;;;;;;;16.35;46.74;99523.38;2117082;27;20977;-57
2023/03/07 03:25:26;;;;;;;0.10;0.10;;;;;;;16.34;46.70;99514.44;2114568;27;20104;-57
2023/03/07 03:26:30;;;;;;;0.10;0.10;;;;;;;16.34;46.74;99517.16;2110832;28;20050;-56
2023/03/07 03:27:32;;;;;;;0.10;0.10;;;;;;;16.33;46.68;99515.59;2109427;28;20054;-57
2023/03/07 03:28:35;;;;;;;0.10;0.10;;;;;;;16.34;46.57;99519.91;2121809;27;20043;-57
2023/03/07 03:29:39;;;;;;;0.10;0.10;;;;;;;16.35;46.69;99521.44;2115246;27;20052;-56
2023/03/07 03:30:42;;;;;;;0.03;0.03;;;;;;;16.33;46.46;99523.78;2116259;27;20047;-56
2023/03/07 03:31:44;;;;;;;0.00;0.00;;;;;;;16.34;46.36;99516.38;2118044;27;20112;-56
2023/03/07 03:32:47;;;;;;;0.10;0.10;;;;;;;16.33;46.44;99523.78;2116141;27;20066;-56
2023/03/07 03:33:53;;;;;;;0.08;0.08;;;;;;;16.33;46.17;99521.06;2101305;28;20048;-56
2023/03/07 03:34:56;;;;;;;0.10;0.10;;;;;;;16.32;46.54;99524.19;2113300;27;20052;-56
2023/03/07 03:36:00;;;;;;;0.08;0.08;;;;;;;16.31;46.47;99520.72;2113977;27;20538;-56
2023/03/07 03:37:03;;;;;;;0.10;0.10;;;;;;;16.30;46.55;99521.88;2114920;27;20055;-57
2023/03/07 03:38:05;;;;;;;0.10;0.10;;;;;;;16.31;46.45;99523.44;2117363;27;20048;-57
2023/03/07 03:39:09;;;;;;;0.10;0.10;;;;;;;16.31;46.50;99525.38;2112015;28;20128;-57
2023/03/07 03:40:19;;;;;;;0.10;0.10;;;;;;;16.28;46.52;99524.22;2116604;27;20579;-56
2023/03/07 03:41:23;;;;;;;0.08;0.08;;;;;;;16.28;46.61;99520.75;2117978;27;20597;-56
2023/03/07 03:42:25;;;;;;;0.10;0.10;;;;;;;16.29;46.58;99523.06;2114858;27;20101;-56
2023/03/07 03:43:28;;;;;;;0.10;0.10;;;;;;;16.29;46.53;99517.63;2106717;28;20048;-56
2023/03/07 03:44:30;;;;;;;0.00;0.00;;;;;;;16.29;46.55;99522.28;2106686;28;20055;-56
2023/03/07 03:45:34;;;;;;;0.10;0.10;;;;;;;16.31;46.36;99519.94;2118072;27;20131;-57
2023/03/07 03:46:36;;;;;;;0.10;0.10;;;;;;;16.28;46.44;99521.50;2115830;27;20150;-56
2023/03/07 03:47:40;;;;;;;0.10;0.10;;;;;;;16.29;46.55;99517.63;2114334;27;20055;-56
2023/03/07 03:48:42;;;;;;;0.10;0.10;;;;;;;16.28;46.35;99526.97;2115806;27;20051;-56
2023/03/07 03:49:45;;;;;;;0.00;0.00;;;;;;;16.28;46.36;99526.97;2114039;27;20048;-56
2023/03/07 03:50:47;;;;;;;0.03;0.03;;;;;;;16.28;46.03;99523.47;2117114;27;20416;-56
2023/03/07 03:51:50;;;;;;;0.32;0.32;;;;;;;16.28;46.31;99521.50;2106758;28;20142;-56
2023/03/07 03:52:52;;;;;;;0.03;0.03;;;;;;;16.28;46.45;99523.47;2104058;28;20051;-56
2023/03/07 03:53:57;;;;;;;0.10;0.10;;;;;;;16.28;46.34;99524.22;2094438;28;20048;-55
2023/03/07 03:55:00;;;;;;;0.00;0.00;;;;;;;16.26;46.31;99532.06;2090776;28;20851;-55
2023/03/07 03:56:05;;;;;;;0.00;0.00;;;;;;;16.28;46.29;99535.13;2099729;28;20052;-55
2023/03/07 03:57:07;;;;;;;0.10;0.10;;;;;;;16.26;46.48;99537.50;2103129;28;20051;-54
2023/03/07 03:58:11;;;;;;;0.03;0.03;;;;;;;16.26;46.46;99532.06;2103576;28;20094;-54
2023/03/07 03:59:13;;;;;;;0.10;0.10;;;;;;;16.25;46.39;99533.22;2105546;28;20044;-54
2023/03/07 04:00:18;;;;;;;0.00;0.00;;;;;;;16.27;46.36;99538.25;2109958;28;20071;-55
2023/03/07 04:01:26;;;;;;;0.00;0.00;;;;;;;16.25;46.45;99541.41;2106489;28;20051;-55
2023/03/07 04:02:29;;;;;;;0.00;0.00;;;;;;;16.24;46.42;99533.63;2104661;28;20098;-54
2023/03/07 04:03:33;;;;;;;0.00;0.00;;;;;;;16.24;46.47;99541.81;2098600;28;20146;-55
2023/03/07 04:04:36;;;;;;;0.00;0.00;;;;;;;16.25;46.39;99532.47;2111553;28;20056;-54
2023/03/07 04:05:38;;;;;;;0.00;0.00;;;;;;;16.23;46.33;99535.59;2104715;28;20524;-55
2023/03/07 04:06:42;;;;;;;0.00;0.00;;;;;;;16.24;46.43;99528.97;2105068;28;20066;-55
2023/03/07 04:07:44;;;;;;;0.63;0.63;;;;;;;16.23;46.29;99532.88;2101498;28;20773;-55
2023/03/07 04:08:48;;;;;;;0.00;0.00;;;;;;;16.24;45.92;99537.13;2100227;28;20379;-54
2023/03/07 04:09:50;;;;;;;0.10;0.10;;;;;;;16.23;46.25;99523.94;2108715;27;20429;-55
2023/03/07 04:10:53;;;;;;;0.00;0.00;;;;;;;16.22;46.16;99525.13;2100141;28;20048;-54
2023/03/07 04:11:56;;;;;;;0.10;0.10;;;;;;;16.22;46.25;99528.59;2093021;28;20159;-55
2023/03/07 04:12:59;;;;;;;0.10;0.10;;;;;;;16.21;46.39;99543.41;2112174;28;20428;-55
2023/03/07 04:14:02;;;;;;;0.10;0.10;;;;;;;16.19;46.38;99523.97;2114517;27;20058;-54
2023/03/07 04:15:06;;;;;;;0.00;0.00;;;;;;;16.22;46.33;99538.75;2111302;28;20588;-54
2023/03/07 04:16:09;;;;;;;0.08;0.08;;;;;;;16.21;46.16;99535.25;2112176;28;20058;-55
2023/03/07 04:17:13;;;;;;;0.00;0.00;;;;;;;16.22;46.15;99527.84;2113627;27;20622;-55
2023/03/07 04:18:16;;;;;;;0.00;0.00;;;;;;;16.20;46.20;99530.97;2097661;28;20059;-55
2023/03/07 04:19:18;;;;;;;0.00;0.00;;;;;;;16.20;46.39;99519.31;2098344;28;20048;-55
2023/03/07 04:20:23;;;;;;;0.00;0.00;;;;;;;16.20;46.28;99524.75;2119664;27;20058;-54
2023/03/07 04:21:28;;;;;;;0.00;0.00;;;;;;;16.19;46.23;99526.69;2113764;27;20405;-54
2023/03/07 04:22:33;;;;;;;0.00;0.00;;;;;;;16.18;46.25;99517.00;2115636;27;20047;-55
2023/03/07 04:23:35;;;;;;;0.00;0.00;;;;;;;16.19;46.27;99521.25;2106980;28;20052;-55
2023/03/07 04:24:38;;;;;;;0.13;0.13;;;;;;;16.19;46.29;99523.19;2114042;27;20059;-55
2023/03/07 04:25:45;;;;;;;0.10;0.10;;;;;;;16.18;46.32;99517.00;2114009;27;20176;-54
2023/03/07 04:26:48;;;;;;;0.00;0.00;;;;;;;16.18;46.30;99527.09;2113550;27;20078;-54
2023/03/07 04:27:50;;;;;;;0.10;0.10;;;;;;;16.18;45.96;99532.56;2114230;27;20127;-54
2023/03/07 04:28:53;;;;;;;0.05;0.05;;;;;;;16.18;46.23;99527.88;2114249;27;20040;-54
2023/03/07 04:30:13;;;;;;;0.10;0.10;;;;;;;16.14;46.22;99521.69;2113259;27;21010;-55
2023/03/07 04:31:18;;;;;;;0.08;0.08;;;;;;;16.17;46.22;99523.59;2116033;27;20111;-55
2023/03/07 04:32:22;;;;;;;0.10;0.10;;;;;;;16.17;46.26;99529.06;2121219;27;20424;-55
2023/03/07 04:33:26;;;;;;;0.00;0.00;;;;;;;16.16;46.20;99524.81;2119520;27;20051;-55
2023/03/07 04:34:28;;;;;;;0.10;0.10;;;;;;;16.15;46.09;99520.53;2115858;27;20048;-55
2023/03/07 04:35:31;;;;;;;0.08;0.08;;;;;;;16.15;46.15;99531.44;2105858;28;20043;-54
2023/03/07 04:36:34;;;;;;;0.00;0.00;;;;;;;16.16;46.16;99527.53;2105207;27;20060;-55
2023/03/07 04:37:36;;;;;;;0.00;0.00;;;;;;;16.15;46.16;99526.00;2120262;27;20051;-55
2023/03/07 04:38:41;;;;;;;0.00;0.00;;;;;;;16.14;46.05;99527.16;2117123;27;20133;-55
2023/03/07 04:39:43;;;;;;;0.03;0.03;;;;;;;16.15;46.05;99522.47;2120834;27;20055;-54
2023/03/07 04:40:46;;;;;;;0.10;0.10;;;;;;;16.14;46.08;99529.88;2120004;27;20598;-55
2023/03/07 04:41:47;;;;;;;0.10;0.10;;;;;;;16.14;46.06;99527.16;2114506;27;20135;-55
2023/03/07 04:42:56;;;;;;;0.05;0.05;;;;;;;16.13;46.15;99522.91;2113109;28;20096;-54
2023/03/07 04:43:58;;;;;;;0.03;0.03;;;;;;;16.14;46.06;99534.56;2115658;27;20051;-55
2023/03/07 04:45:01;;;;;;;0.00;0.00;;;;;;;16.14;46.16;99537.28;2114828;27;20138;-55
2023/03/07 04:46:05;;;;;;;0.10;0.10;;;;;;;16.12;46.02;99545.88;2118367;27;20158;-54
2023/03/07 04:47:08;;;;;;;0.00;0.00;;;;;;;16.13;46.16;99533.78;2116023;27;20547;-54
2023/03/07 04:48:13;;;;;;;0.00;0.00;;;;;;;16.12;46.05;99537.69;2112421;27;20044;-55
2023/03/07 04:49:16;;;;;;;0.00;0.00;;;;;;;16.12;45.99;99534.19;2111867;27;20374;-55
2023/03/07 04:50:19;;;;;;;0.10;0.10;;;;;;;16.11;46.33;99538.88;2114913;27;20180;-54
2023/03/07 04:51:23;;;;;;;0.00;0.00;;;;;;;16.11;46.00;99538.88;2113529;27;20295;-55
2023/03/07 04:52:25;;;;;;;0.00;0.00;;;;;;;16.10;46.02;99531.09;2114924;27;20044;-55
2023/03/07 04:53:29;;;;;;;0.08;0.08;;;;;;;16.11;45.98;99533.41;2119655;27;20129;-55
2023/03/07 04:54:32;;;;;;;0.00;0.00;;;;;;;16.10;45.98;99531.88;2108315;28;20070;-55
2023/03/07 04:55:36;;;;;;;0.03;0.03;;;;;;;16.10;45.98;99540.06;2108470;28;20138;-55
2023/03/07 04:56:39;;;;;;;0.00;0.00;;;;;;;16.10;45.80;99537.31;2106580;28;20079;-54
2023/03/07 04:57:45;;;;;;;0.10;0.10;;;;;;;16.09;45.96;99541.22;2110234;27;20097;-55
2023/03/07 04:58:48;;;;;;;0.00;0.00;;;;;;;16.09;45.99;99535.78;2116092;27;20050;-54
2023/03/07 04:59:53;;;;;;;0.10;0.10;;;;;;;16.10;45.91;99537.31;2115404;27;20056;-55
2023/03/07 05:00:58;;;;;;;0.05;0.05;;;;;;;16.09;46.31;99535.03;2115354;27;20508;-55